sensor_id;sensor_type;location;lat;lon;timestamp;P1;durP1;ratioP1;P2;durP2;ratioP2
16075;SDS011;8142;48.242;11.644;2022-08-02T00:01:38;3.50;;;1.30;;
16075;SDS011;8142;48.242;11.644;2022-08-02T00:04:05;1.60;;;1.50;;
16075;SDS011;8142;48.242;11.644;2022-08-02T00:06:31;1.70;;;1.20;;
16075;SDS011;8142;48.242;11.644;2022-08-02T00:08:57;1.50;;;1.37;;
16075;SDS011;8142;48.242;11.644;2022-08-02T00:11:23;1.07;;;1.00;;
16075;SDS011;8142;48.242;11.644;2022-08-02T00:13:49;1.17;;;1.10;;
16075;SDS011;8142;48.242;11.644;2022-08-02T00:16:15;1.80;;;1.10;;
16075;SDS011;8142;48.242;11.644;2022-08-02T00:18:41;1.20;;;1.10;;
16075;SDS011;8142;48.242;11.644;2022-08-02T00:21:07;2.27;;;1.50;;
16075;SDS011;8142;48.242;11.644;2022-08-02T00:23:33;1.30;;;1.20;;
16075;SDS011;8142;48.242;11.644;2022-08-02T00:25:59;2.37;;;1.30;;
16075;SDS011;8142;48.242;11.644;2022-08-02T00:28:25;1.27;;;1.13;;
16075;SDS011;8142;48.242;11.644;2022-08-02T00:30:51;1.20;;;1.10;;
16075;SDS011;8142;48.242;11.644;2022-08-02T00:33:17;1.33;;;1.17;;
16075;SDS011;8142;48.242;11.644;2022-08-02T00:35:43;1.73;;;1.20;;
16075;SDS011;8142;48.242;11.644;2022-08-02T00:38:11;1.10;;;1.00;;
16075;SDS011;8142;48.242;11.644;2022-08-02T00:40:38;2.43;;;1.27;;
16075;SDS011;8142;48.242;11.644;2022-08-02T00:43:05;1.20;;;1.20;;
16075;SDS011;8142;48.242;11.644;2022-08-02T00:45:33;1.50;;;1.40;;
16075;SDS011;8142;48.242;11.644;2022-08-02T00:48:00;1.47;;;1.30;;
16075;SDS011;8142;48.242;11.644;2022-08-02T00:50:27;1.93;;;1.10;;
16075;SDS011;8142;48.242;11.644;2022-08-02T00:52:56;1.43;;;1.07;;
16075;SDS011;8142;48.242;11.644;2022-08-02T00:55:22;2.00;;;1.20;;
16075;SDS011;8142;48.242;11.644;2022-08-02T00:57:47;1.57;;;1.20;;
16075;SDS011;8142;48.242;11.644;2022-08-02T01:00:14;1.33;;;1.23;;
16075;SDS011;8142;48.242;11.644;2022-08-02T01:02:40;1.27;;;1.20;;
16075;SDS011;8142;48.242;11.644;2022-08-02T01:05:06;1.37;;;1.27;;
16075;SDS011;8142;48.242;11.644;2022-08-02T01:07:33;1.20;;;1.20;;
16075;SDS011;8142;48.242;11.644;2022-08-02T01:09:59;2.20;;;1.23;;
16075;SDS011;8142;48.242;11.644;2022-08-02T01:12:25;3.83;;;1.47;;
16075;SDS011;8142;48.242;11.644;2022-08-02T01:14:52;2.17;;;1.30;;
16075;SDS011;8142;48.242;11.644;2022-08-02T01:28:42;1.47;;;1.37;;
16075;SDS011;8142;48.242;11.644;2022-08-02T01:33:50;1.90;;;1.40;;
16075;SDS011;8142;48.242;11.644;2022-08-02T01:36:23;1.53;;;1.30;;
16075;SDS011;8142;48.242;11.644;2022-08-02T01:38:55;2.73;;;1.30;;
16075;SDS011;8142;48.242;11.644;2022-08-02T01:41:23;1.23;;;1.13;;
16075;SDS011;8142;48.242;11.644;2022-08-02T01:43:51;1.53;;;1.40;;
16075;SDS011;8142;48.242;11.644;2022-08-02T01:46:20;1.37;;;1.13;;
16075;SDS011;8142;48.242;11.644;2022-08-02T01:48:48;2.20;;;1.30;;
16075;SDS011;8142;48.242;11.644;2022-08-02T01:51:17;1.40;;;1.30;;
16075;SDS011;8142;48.242;11.644;2022-08-02T01:54:05;3.00;;;1.20;;
16075;SDS011;8142;48.242;11.644;2022-08-02T01:56:33;3.63;;;1.60;;
16075;SDS011;8142;48.242;11.644;2022-08-02T01:59:02;2.10;;;1.40;;
16075;SDS011;8142;48.242;11.644;2022-08-02T02:01:30;1.20;;;1.10;;
16075;SDS011;8142;48.242;11.644;2022-08-02T02:03:58;2.90;;;1.53;;
16075;SDS011;8142;48.242;11.644;2022-08-02T02:06:25;1.57;;;1.30;;
16075;SDS011;8142;48.242;11.644;2022-08-02T02:08:52;3.00;;;1.30;;
16075;SDS011;8142;48.242;11.644;2022-08-02T02:11:20;1.30;;;1.20;;
16075;SDS011;8142;48.242;11.644;2022-08-02T02:13:46;1.77;;;1.37;;
16075;SDS011;8142;48.242;11.644;2022-08-02T02:16:13;2.23;;;1.33;;
16075;SDS011;8142;48.242;11.644;2022-08-02T02:18:40;1.77;;;1.30;;
16075;SDS011;8142;48.242;11.644;2022-08-02T02:21:08;2.67;;;1.43;;
16075;SDS011;8142;48.242;11.644;2022-08-02T02:23:36;1.43;;;1.20;;
16075;SDS011;8142;48.242;11.644;2022-08-02T02:26:02;1.83;;;1.20;;
16075;SDS011;8142;48.242;11.644;2022-08-02T02:28:29;1.97;;;1.40;;
16075;SDS011;8142;48.242;11.644;2022-08-02T02:31:06;1.23;;;1.23;;
16075;SDS011;8142;48.242;11.644;2022-08-02T02:33:37;1.80;;;1.60;;
16075;SDS011;8142;48.242;11.644;2022-08-02T02:36:06;1.97;;;1.53;;
16075;SDS011;8142;48.242;11.644;2022-08-02T02:38:32;1.53;;;1.43;;
16075;SDS011;8142;48.242;11.644;2022-08-02T02:41:00;1.93;;;1.20;;
16075;SDS011;8142;48.242;11.644;2022-08-02T02:43:29;2.60;;;1.40;;
16075;SDS011;8142;48.242;11.644;2022-08-02T02:45:56;2.63;;;1.70;;
16075;SDS011;8142;48.242;11.644;2022-08-02T02:48:23;4.10;;;1.53;;
16075;SDS011;8142;48.242;11.644;2022-08-02T02:50:50;4.37;;;1.60;;
16075;SDS011;8142;48.242;11.644;2022-08-02T02:53:17;1.73;;;1.37;;
16075;SDS011;8142;48.242;11.644;2022-08-02T02:55:44;1.87;;;1.40;;
16075;SDS011;8142;48.242;11.644;2022-08-02T02:58:12;1.50;;;1.40;;
16075;SDS011;8142;48.242;11.644;2022-08-02T03:00:38;1.33;;;1.23;;
16075;SDS011;8142;48.242;11.644;2022-08-02T03:03:23;2.10;;;1.33;;
16075;SDS011;8142;48.242;11.644;2022-08-02T03:05:50;1.50;;;1.40;;
16075;SDS011;8142;48.242;11.644;2022-08-02T03:08:15;2.13;;;1.50;;
16075;SDS011;8142;48.242;11.644;2022-08-02T03:10:42;1.90;;;1.40;;
16075;SDS011;8142;48.242;11.644;2022-08-02T03:13:10;1.50;;;1.40;;
16075;SDS011;8142;48.242;11.644;2022-08-02T03:15:36;1.97;;;1.50;;
16075;SDS011;8142;48.242;11.644;2022-08-02T03:18:04;2.57;;;1.50;;
16075;SDS011;8142;48.242;11.644;2022-08-02T03:20:32;1.90;;;1.70;;
16075;SDS011;8142;48.242;11.644;2022-08-02T03:22:58;2.30;;;1.60;;
16075;SDS011;8142;48.242;11.644;2022-08-02T03:25:24;2.43;;;1.67;;
16075;SDS011;8142;48.242;11.644;2022-08-02T03:27:50;1.67;;;1.57;;
16075;SDS011;8142;48.242;11.644;2022-08-02T03:30:16;2.53;;;1.50;;
16075;SDS011;8142;48.242;11.644;2022-08-02T03:32:46;3.40;;;1.50;;
16075;SDS011;8142;48.242;11.644;2022-08-02T03:35:13;2.27;;;1.70;;
16075;SDS011;8142;48.242;11.644;2022-08-02T03:37:40;1.70;;;1.60;;
16075;SDS011;8142;48.242;11.644;2022-08-02T03:40:07;5.77;;;1.80;;
16075;SDS011;8142;48.242;11.644;2022-08-02T03:42:35;2.17;;;1.80;;
16075;SDS011;8142;48.242;11.644;2022-08-02T03:45:02;2.10;;;1.70;;
16075;SDS011;8142;48.242;11.644;2022-08-02T03:47:29;3.37;;;1.70;;
16075;SDS011;8142;48.242;11.644;2022-08-02T03:49:56;1.93;;;1.77;;
16075;SDS011;8142;48.242;11.644;2022-08-02T03:52:22;2.43;;;1.60;;
16075;SDS011;8142;48.242;11.644;2022-08-02T03:54:50;1.83;;;1.70;;
16075;SDS011;8142;48.242;11.644;2022-08-02T03:57:16;1.97;;;1.77;;
16075;SDS011;8142;48.242;11.644;2022-08-02T03:59:43;3.67;;;2.20;;
16075;SDS011;8142;48.242;11.644;2022-08-02T04:02:10;2.03;;;1.80;;
16075;SDS011;8142;48.242;11.644;2022-08-02T04:04:36;2.90;;;1.73;;
16075;SDS011;8142;48.242;11.644;2022-08-02T04:07:02;2.13;;;1.80;;
16075;SDS011;8142;48.242;11.644;2022-08-02T04:09:28;1.80;;;1.70;;
16075;SDS011;8142;48.242;11.644;2022-08-02T04:11:54;2.23;;;1.90;;
16075;SDS011;8142;48.242;11.644;2022-08-02T04:14:20;3.53;;;1.83;;
16075;SDS011;8142;48.242;11.644;2022-08-02T04:16:49;2.10;;;1.90;;
16075;SDS011;8142;48.242;11.644;2022-08-02T04:21:52;2.57;;;1.80;;
16075;SDS011;8142;48.242;11.644;2022-08-02T04:24:24;2.43;;;1.80;;
16075;SDS011;8142;48.242;11.644;2022-08-02T04:26:53;1.87;;;1.50;;
16075;SDS011;8142;48.242;11.644;2022-08-02T04:29:21;1.70;;;1.60;;
16075;SDS011;8142;48.242;11.644;2022-08-02T04:31:47;1.90;;;1.80;;
16075;SDS011;8142;48.242;11.644;2022-08-02T04:34:14;2.00;;;1.80;;
16075;SDS011;8142;48.242;11.644;2022-08-02T04:36:40;2.70;;;1.97;;
16075;SDS011;8142;48.242;11.644;2022-08-02T04:39:06;3.53;;;1.90;;
16075;SDS011;8142;48.242;11.644;2022-08-02T04:41:39;3.43;;;2.03;;
16075;SDS011;8142;48.242;11.644;2022-08-02T04:44:06;2.00;;;1.80;;
16075;SDS011;8142;48.242;11.644;2022-08-02T04:46:32;2.33;;;1.77;;
16075;SDS011;8142;48.242;11.644;2022-08-02T04:48:59;2.00;;;1.77;;
16075;SDS011;8142;48.242;11.644;2022-08-02T04:51:25;1.90;;;1.80;;
16075;SDS011;8142;48.242;11.644;2022-08-02T04:53:51;2.30;;;1.90;;
16075;SDS011;8142;48.242;11.644;2022-08-02T04:56:17;2.10;;;1.90;;
16075;SDS011;8142;48.242;11.644;2022-08-02T04:58:43;2.10;;;1.90;;
16075;SDS011;8142;48.242;11.644;2022-08-02T05:01:09;2.30;;;2.10;;
16075;SDS011;8142;48.242;11.644;2022-08-02T05:03:35;2.40;;;1.80;;
16075;SDS011;8142;48.242;11.644;2022-08-02T05:06:00;2.60;;;1.87;;
16075;SDS011;8142;48.242;11.644;2022-08-02T05:08:26;2.63;;;2.20;;
16075;SDS011;8142;48.242;11.644;2022-08-02T05:10:52;2.37;;;1.80;;
16075;SDS011;8142;48.242;11.644;2022-08-02T05:13:18;2.00;;;1.80;;
16075;SDS011;8142;48.242;11.644;2022-08-02T05:15:46;2.17;;;1.70;;
16075;SDS011;8142;48.242;11.644;2022-08-02T05:18:13;2.10;;;1.60;;
16075;SDS011;8142;48.242;11.644;2022-08-02T05:20:39;2.40;;;2.03;;
16075;SDS011;8142;48.242;11.644;2022-08-02T05:23:05;3.07;;;1.90;;
16075;SDS011;8142;48.242;11.644;2022-08-02T05:25:31;2.10;;;1.90;;
16075;SDS011;8142;48.242;11.644;2022-08-02T05:27:56;2.10;;;1.90;;
16075;SDS011;8142;48.242;11.644;2022-08-02T05:30:22;3.30;;;1.90;;
16075;SDS011;8142;48.242;11.644;2022-08-02T05:32:49;3.70;;;2.10;;
16075;SDS011;8142;48.242;11.644;2022-08-02T05:35:19;3.13;;;1.80;;
16075;SDS011;8142;48.242;11.644;2022-08-02T05:37:46;2.50;;;1.87;;
16075;SDS011;8142;48.242;11.644;2022-08-02T05:40:13;2.83;;;2.50;;
16075;SDS011;8142;48.242;11.644;2022-08-02T05:42:39;2.03;;;1.87;;
16075;SDS011;8142;48.242;11.644;2022-08-02T05:45:06;2.10;;;1.90;;
16075;SDS011;8142;48.242;11.644;2022-08-02T05:47:32;2.23;;;1.90;;
16075;SDS011;8142;48.242;11.644;2022-08-02T05:49:58;2.37;;;2.00;;
16075;SDS011;8142;48.242;11.644;2022-08-02T05:52:25;2.53;;;1.83;;
16075;SDS011;8142;48.242;11.644;2022-08-02T05:57:36;2.40;;;1.73;;
16075;SDS011;8142;48.242;11.644;2022-08-02T06:00:11;2.37;;;1.77;;
16075;SDS011;8142;48.242;11.644;2022-08-02T06:08:00;2.77;;;1.77;;
16075;SDS011;8142;48.242;11.644;2022-08-02T06:10:27;2.20;;;1.80;;
16075;SDS011;8142;48.242;11.644;2022-08-02T06:13:04;1.93;;;1.70;;
16075;SDS011;8142;48.242;11.644;2022-08-02T06:15:36;2.60;;;1.80;;
16075;SDS011;8142;48.242;11.644;2022-08-02T06:18:03;2.97;;;1.60;;
16075;SDS011;8142;48.242;11.644;2022-08-02T06:20:30;2.50;;;1.50;;
16075;SDS011;8142;48.242;11.644;2022-08-02T06:23:03;3.17;;;1.50;;
16075;SDS011;8142;48.242;11.644;2022-08-02T06:25:33;2.20;;;1.80;;
16075;SDS011;8142;48.242;11.644;2022-08-02T06:28:02;4.73;;;1.53;;
16075;SDS011;8142;48.242;11.644;2022-08-02T06:30:30;1.70;;;1.60;;
16075;SDS011;8142;48.242;11.644;2022-08-02T06:32:57;1.73;;;1.57;;
16075;SDS011;8142;48.242;11.644;2022-08-02T06:35:33;2.50;;;1.40;;
16075;SDS011;8142;48.242;11.644;2022-08-02T06:38:07;2.37;;;1.43;;
16075;SDS011;8142;48.242;11.644;2022-08-02T06:40:44;1.60;;;1.50;;
16075;SDS011;8142;48.242;11.644;2022-08-02T06:43:26;2.00;;;1.43;;
16075;SDS011;8142;48.242;11.644;2022-08-02T06:45:54;1.93;;;1.50;;
16075;SDS011;8142;48.242;11.644;2022-08-02T06:48:20;1.60;;;1.50;;
16075;SDS011;8142;48.242;11.644;2022-08-02T06:50:46;2.77;;;1.60;;
16075;SDS011;8142;48.242;11.644;2022-08-02T06:53:12;2.67;;;1.70;;
16075;SDS011;8142;48.242;11.644;2022-08-02T06:55:37;2.63;;;1.50;;
16075;SDS011;8142;48.242;11.644;2022-08-02T06:58:03;4.40;;;1.80;;
16075;SDS011;8142;48.242;11.644;2022-08-02T07:00:29;3.20;;;1.90;;
16075;SDS011;8142;48.242;11.644;2022-08-02T07:02:55;1.83;;;1.60;;
16075;SDS011;8142;48.242;11.644;2022-08-02T07:05:22;1.73;;;1.60;;
16075;SDS011;8142;48.242;11.644;2022-08-02T07:07:48;1.97;;;1.77;;
16075;SDS011;8142;48.242;11.644;2022-08-02T07:10:14;2.33;;;1.87;;
16075;SDS011;8142;48.242;11.644;2022-08-02T07:12:40;1.90;;;1.70;;
16075;SDS011;8142;48.242;11.644;2022-08-02T07:15:06;4.10;;;1.70;;
16075;SDS011;8142;48.242;11.644;2022-08-02T07:17:34;1.80;;;1.70;;
16075;SDS011;8142;48.242;11.644;2022-08-02T07:20:00;1.90;;;1.60;;
16075;SDS011;8142;48.242;11.644;2022-08-02T07:22:28;2.03;;;1.60;;
16075;SDS011;8142;48.242;11.644;2022-08-02T07:24:55;1.80;;;1.60;;
16075;SDS011;8142;48.242;11.644;2022-08-02T07:27:23;1.70;;;1.60;;
16075;SDS011;8142;48.242;11.644;2022-08-02T07:29:49;2.10;;;1.60;;
16075;SDS011;8142;48.242;11.644;2022-08-02T07:32:16;2.40;;;1.83;;
16075;SDS011;8142;48.242;11.644;2022-08-02T07:34:43;2.23;;;1.43;;
16075;SDS011;8142;48.242;11.644;2022-08-02T07:37:09;3.53;;;1.67;;
16075;SDS011;8142;48.242;11.644;2022-08-02T07:39:35;2.07;;;1.60;;
16075;SDS011;8142;48.242;11.644;2022-08-02T07:42:01;1.60;;;1.50;;
16075;SDS011;8142;48.242;11.644;2022-08-02T07:44:27;1.40;;;1.30;;
16075;SDS011;8142;48.242;11.644;2022-08-02T07:47:02;1.47;;;1.37;;
16075;SDS011;8142;48.242;11.644;2022-08-02T07:49:29;1.33;;;1.30;;
16075;SDS011;8142;48.242;11.644;2022-08-02T07:51:55;2.27;;;1.50;;
16075;SDS011;8142;48.242;11.644;2022-08-02T07:54:21;2.13;;;1.57;;
16075;SDS011;8142;48.242;11.644;2022-08-02T07:56:47;2.03;;;1.40;;
16075;SDS011;8142;48.242;11.644;2022-08-02T07:59:13;1.40;;;1.30;;
16075;SDS011;8142;48.242;11.644;2022-08-02T08:01:39;3.23;;;1.33;;
16075;SDS011;8142;48.242;11.644;2022-08-02T08:04:06;1.47;;;1.40;;
16075;SDS011;8142;48.242;11.644;2022-08-02T08:06:31;1.50;;;1.40;;
16075;SDS011;8142;48.242;11.644;2022-08-02T08:08:57;1.87;;;1.50;;
16075;SDS011;8142;48.242;11.644;2022-08-02T08:11:23;1.37;;;1.23;;
16075;SDS011;8142;48.242;11.644;2022-08-02T08:13:49;1.53;;;1.43;;
16075;SDS011;8142;48.242;11.644;2022-08-02T08:16:15;1.80;;;1.53;;
16075;SDS011;8142;48.242;11.644;2022-08-02T08:18:42;2.10;;;1.70;;
16075;SDS011;8142;48.242;11.644;2022-08-02T08:21:08;2.10;;;1.50;;
16075;SDS011;8142;48.242;11.644;2022-08-02T08:23:34;1.57;;;1.47;;
16075;SDS011;8142;48.242;11.644;2022-08-02T08:26:01;1.50;;;1.40;;
16075;SDS011;8142;48.242;11.644;2022-08-02T08:28:27;2.60;;;1.30;;
16075;SDS011;8142;48.242;11.644;2022-08-02T08:30:53;1.57;;;1.40;;
16075;SDS011;8142;48.242;11.644;2022-08-02T08:33:19;2.13;;;1.50;;
16075;SDS011;8142;48.242;11.644;2022-08-02T08:35:44;2.33;;;1.50;;
16075;SDS011;8142;48.242;11.644;2022-08-02T08:38:10;1.50;;;1.40;;
16075;SDS011;8142;48.242;11.644;2022-08-02T08:40:36;2.80;;;1.63;;
16075;SDS011;8142;48.242;11.644;2022-08-02T08:43:03;1.37;;;1.20;;
16075;SDS011;8142;48.242;11.644;2022-08-02T08:45:29;1.67;;;1.57;;
16075;SDS011;8142;48.242;11.644;2022-08-02T08:47:59;2.37;;;1.30;;
16075;SDS011;8142;48.242;11.644;2022-08-02T08:50:26;1.50;;;1.40;;
16075;SDS011;8142;48.242;11.644;2022-08-02T08:55:28;2.40;;;1.47;;
16075;SDS011;8142;48.242;11.644;2022-08-02T08:57:55;1.63;;;1.23;;
16075;SDS011;8142;48.242;11.644;2022-08-02T09:00:23;1.37;;;1.30;;
16075;SDS011;8142;48.242;11.644;2022-08-02T09:02:49;1.30;;;1.20;;
16075;SDS011;8142;48.242;11.644;2022-08-02T09:05:15;1.40;;;1.30;;
16075;SDS011;8142;48.242;11.644;2022-08-02T09:07:42;1.67;;;1.57;;
16075;SDS011;8142;48.242;11.644;2022-08-02T09:13:17;3.00;;;1.30;;
16075;SDS011;8142;48.242;11.644;2022-08-02T09:15:57;2.43;;;1.40;;
16075;SDS011;8142;48.242;11.644;2022-08-02T09:18:28;2.33;;;1.40;;
16075;SDS011;8142;48.242;11.644;2022-08-02T09:21:00;1.30;;;1.20;;
16075;SDS011;8142;48.242;11.644;2022-08-02T09:23:38;1.40;;;1.30;;
16075;SDS011;8142;48.242;11.644;2022-08-02T09:26:12;1.33;;;1.30;;
16075;SDS011;8142;48.242;11.644;2022-08-02T09:28:40;2.30;;;1.40;;
16075;SDS011;8142;48.242;11.644;2022-08-02T09:31:09;2.07;;;1.60;;
16075;SDS011;8142;48.242;11.644;2022-08-02T09:33:38;1.93;;;1.30;;
16075;SDS011;8142;48.242;11.644;2022-08-02T09:38:52;1.93;;;1.40;;
16075;SDS011;8142;48.242;11.644;2022-08-02T09:41:25;1.87;;;1.50;;
16075;SDS011;8142;48.242;11.644;2022-08-02T09:43:56;1.50;;;1.40;;
16075;SDS011;8142;48.242;11.644;2022-08-02T09:46:29;1.50;;;1.40;;
16075;SDS011;8142;48.242;11.644;2022-08-02T09:54:01;1.50;;;1.40;;
16075;SDS011;8142;48.242;11.644;2022-08-02T09:59:08;3.87;;;1.60;;
16075;SDS011;8142;48.242;11.644;2022-08-02T10:01:34;1.70;;;1.60;;
16075;SDS011;8142;48.242;11.644;2022-08-02T10:04:02;2.20;;;1.60;;
16075;SDS011;8142;48.242;11.644;2022-08-02T10:06:34;1.63;;;1.53;;
16075;SDS011;8142;48.242;11.644;2022-08-02T10:09:00;1.50;;;1.40;;
16075;SDS011;8142;48.242;11.644;2022-08-02T10:11:26;2.33;;;1.53;;
16075;SDS011;8142;48.242;11.644;2022-08-02T10:13:53;1.70;;;1.30;;
16075;SDS011;8142;48.242;11.644;2022-08-02T10:16:20;1.40;;;1.30;;
16075;SDS011;8142;48.242;11.644;2022-08-02T10:18:53;1.63;;;1.53;;
16075;SDS011;8142;48.242;11.644;2022-08-02T10:21:27;1.60;;;1.40;;
16075;SDS011;8142;48.242;11.644;2022-08-02T10:24:31;2.03;;;1.43;;
16075;SDS011;8142;48.242;11.644;2022-08-02T10:26:52;2.97;;;1.30;;
16075;SDS011;8142;48.242;11.644;2022-08-02T10:29:19;1.80;;;1.40;;
16075;SDS011;8142;48.242;11.644;2022-08-02T10:31:58;1.30;;;1.30;;
16075;SDS011;8142;48.242;11.644;2022-08-02T10:34:33;1.57;;;1.47;;
16075;SDS011;8142;48.242;11.644;2022-08-02T10:37:02;1.60;;;1.50;;
16075;SDS011;8142;48.242;11.644;2022-08-02T10:39:43;1.70;;;1.60;;
16075;SDS011;8142;48.242;11.644;2022-08-02T10:42:10;1.90;;;1.40;;
16075;SDS011;8142;48.242;11.644;2022-08-02T10:44:37;1.73;;;1.40;;
16075;SDS011;8142;48.242;11.644;2022-08-02T10:49:51;2.20;;;1.40;;
16075;SDS011;8142;48.242;11.644;2022-08-02T10:52:26;1.43;;;1.33;;
16075;SDS011;8142;48.242;11.644;2022-08-02T10:57:34;1.07;;;1.07;;
16075;SDS011;8142;48.242;11.644;2022-08-02T11:00:01;1.13;;;1.13;;
16075;SDS011;8142;48.242;11.644;2022-08-02T11:02:35;3.37;;;1.10;;
16075;SDS011;8142;48.242;11.644;2022-08-02T11:05:07;1.40;;;1.20;;
16075;SDS011;8142;48.242;11.644;2022-08-02T11:07:44;2.40;;;1.47;;
16075;SDS011;8142;48.242;11.644;2022-08-02T11:10:33;2.93;;;1.50;;
16075;SDS011;8142;48.242;11.644;2022-08-02T11:13:03;1.50;;;1.40;;
16075;SDS011;8142;48.242;11.644;2022-08-02T11:15:29;1.27;;;1.20;;
16075;SDS011;8142;48.242;11.644;2022-08-02T11:18:11;1.60;;;1.50;;
16075;SDS011;8142;48.242;11.644;2022-08-02T11:20:36;1.73;;;1.40;;
16075;SDS011;8142;48.242;11.644;2022-08-02T11:28:54;1.60;;;1.50;;
16075;SDS011;8142;48.242;11.644;2022-08-02T11:31:21;1.73;;;1.37;;
16075;SDS011;8142;48.242;11.644;2022-08-02T11:33:50;2.00;;;1.30;;
16075;SDS011;8142;48.242;11.644;2022-08-02T11:36:16;2.07;;;1.20;;
16075;SDS011;8142;48.242;11.644;2022-08-02T11:38:42;1.23;;;1.20;;
16075;SDS011;8142;48.242;11.644;2022-08-02T11:41:09;1.30;;;1.20;;
16075;SDS011;8142;48.242;11.644;2022-08-02T11:43:52;1.63;;;1.30;;
16075;SDS011;8142;48.242;11.644;2022-08-02T11:46:19;3.40;;;1.30;;
16075;SDS011;8142;48.242;11.644;2022-08-02T11:48:45;1.03;;;1.03;;
16075;SDS011;8142;48.242;11.644;2022-08-02T11:51:15;1.20;;;1.10;;
16075;SDS011;8142;48.242;11.644;2022-08-02T11:53:49;2.20;;;1.10;;
16075;SDS011;8142;48.242;11.644;2022-08-02T11:56:17;1.67;;;1.37;;
16075;SDS011;8142;48.242;11.644;2022-08-02T12:01:26;1.13;;;1.10;;
16075;SDS011;8142;48.242;11.644;2022-08-02T12:03:52;1.03;;;1.03;;
16075;SDS011;8142;48.242;11.644;2022-08-02T12:06:23;1.47;;;1.37;;
16075;SDS011;8142;48.242;11.644;2022-08-02T12:08:50;1.03;;;1.00;;
16075;SDS011;8142;48.242;11.644;2022-08-02T12:11:18;2.03;;;1.10;;
16075;SDS011;8142;48.242;11.644;2022-08-02T12:13:44;1.00;;;1.00;;
16075;SDS011;8142;48.242;11.644;2022-08-02T12:16:11;1.37;;;1.10;;
16075;SDS011;8142;48.242;11.644;2022-08-02T12:18:56;1.27;;;1.10;;
16075;SDS011;8142;48.242;11.644;2022-08-02T12:21:41;1.30;;;1.20;;
16075;SDS011;8142;48.242;11.644;2022-08-02T12:24:08;1.47;;;1.30;;
16075;SDS011;8142;48.242;11.644;2022-08-02T12:26:44;1.10;;;1.10;;
16075;SDS011;8142;48.242;11.644;2022-08-02T12:29:13;1.30;;;1.20;;
16075;SDS011;8142;48.242;11.644;2022-08-02T12:31:43;1.53;;;1.10;;
16075;SDS011;8142;48.242;11.644;2022-08-02T12:34:15;1.40;;;1.10;;
16075;SDS011;8142;48.242;11.644;2022-08-02T12:36:43;1.30;;;1.10;;
16075;SDS011;8142;48.242;11.644;2022-08-02T12:39:31;1.10;;;1.10;;
16075;SDS011;8142;48.242;11.644;2022-08-02T12:42:05;1.37;;;1.23;;
16075;SDS011;8142;48.242;11.644;2022-08-02T12:44:33;1.83;;;1.33;;
16075;SDS011;8142;48.242;11.644;2022-08-02T12:47:02;1.33;;;1.20;;
16075;SDS011;8142;48.242;11.644;2022-08-02T12:49:30;1.30;;;1.20;;
16075;SDS011;8142;48.242;11.644;2022-08-02T12:51:56;1.10;;;1.10;;
16075;SDS011;8142;48.242;11.644;2022-08-02T12:54:23;1.07;;;1.03;;
16075;SDS011;8142;48.242;11.644;2022-08-02T12:56:53;1.17;;;1.07;;
16075;SDS011;8142;48.242;11.644;2022-08-02T12:59:36;0.93;;;0.93;;
16075;SDS011;8142;48.242;11.644;2022-08-02T13:02:04;1.10;;;1.10;;
16075;SDS011;8142;48.242;11.644;2022-08-02T13:04:31;1.07;;;1.07;;
16075;SDS011;8142;48.242;11.644;2022-08-02T13:06:58;1.30;;;1.20;;
16075;SDS011;8142;48.242;11.644;2022-08-02T13:09:24;1.17;;;1.10;;
16075;SDS011;8142;48.242;11.644;2022-08-02T13:11:49;2.17;;;1.20;;
16075;SDS011;8142;48.242;11.644;2022-08-02T13:14:15;1.10;;;1.10;;
16075;SDS011;8142;48.242;11.644;2022-08-02T13:16:42;1.93;;;1.10;;
16075;SDS011;8142;48.242;11.644;2022-08-02T13:19:09;1.20;;;1.10;;
16075;SDS011;8142;48.242;11.644;2022-08-02T13:21:35;1.20;;;1.10;;
16075;SDS011;8142;48.242;11.644;2022-08-02T13:24:00;1.43;;;1.10;;
16075;SDS011;8142;48.242;11.644;2022-08-02T13:26:26;1.30;;;1.20;;
16075;SDS011;8142;48.242;11.644;2022-08-02T13:28:53;1.20;;;1.10;;
16075;SDS011;8142;48.242;11.644;2022-08-02T13:31:19;1.33;;;1.10;;
16075;SDS011;8142;48.242;11.644;2022-08-02T13:33:45;1.10;;;1.10;;
16075;SDS011;8142;48.242;11.644;2022-08-02T13:36:11;1.13;;;1.07;;
16075;SDS011;8142;48.242;11.644;2022-08-02T13:38:36;1.83;;;1.10;;
16075;SDS011;8142;48.242;11.644;2022-08-02T13:41:02;1.10;;;1.10;;
16075;SDS011;8142;48.242;11.644;2022-08-02T13:43:37;1.10;;;1.10;;
16075;SDS011;8142;48.242;11.644;2022-08-02T13:46:04;1.30;;;1.20;;
16075;SDS011;8142;48.242;11.644;2022-08-02T13:48:30;2.03;;;1.10;;
16075;SDS011;8142;48.242;11.644;2022-08-02T13:50:57;1.50;;;1.20;;
16075;SDS011;8142;48.242;11.644;2022-08-02T13:53:23;1.30;;;1.00;;
16075;SDS011;8142;48.242;11.644;2022-08-02T13:55:49;1.17;;;1.17;;
16075;SDS011;8142;48.242;11.644;2022-08-02T13:58:15;1.10;;;1.00;;
16075;SDS011;8142;48.242;11.644;2022-08-02T14:00:41;1.90;;;1.10;;
16075;SDS011;8142;48.242;11.644;2022-08-02T14:03:07;0.93;;;0.93;;
16075;SDS011;8142;48.242;11.644;2022-08-02T14:05:40;1.40;;;1.30;;
16075;SDS011;8142;48.242;11.644;2022-08-02T14:08:06;1.20;;;1.10;;
16075;SDS011;8142;48.242;11.644;2022-08-02T14:10:33;1.00;;;1.00;;
16075;SDS011;8142;48.242;11.644;2022-08-02T14:12:59;0.97;;;0.97;;
16075;SDS011;8142;48.242;11.644;2022-08-02T14:15:24;1.37;;;1.10;;
16075;SDS011;8142;48.242;11.644;2022-08-02T14:17:50;1.80;;;1.10;;
16075;SDS011;8142;48.242;11.644;2022-08-02T14:20:16;3.37;;;1.23;;
16075;SDS011;8142;48.242;11.644;2022-08-02T14:22:42;1.47;;;1.00;;
16075;SDS011;8142;48.242;11.644;2022-08-02T14:25:08;0.90;;;0.90;;
16075;SDS011;8142;48.242;11.644;2022-08-02T14:27:34;1.20;;;1.10;;
16075;SDS011;8142;48.242;11.644;2022-08-02T14:30:00;1.20;;;1.20;;
16075;SDS011;8142;48.242;11.644;2022-08-02T14:32:26;3.00;;;1.03;;
16075;SDS011;8142;48.242;11.644;2022-08-02T14:34:52;1.23;;;1.13;;
16075;SDS011;8142;48.242;11.644;2022-08-02T14:37:18;1.10;;;1.10;;
16075;SDS011;8142;48.242;11.644;2022-08-02T14:39:44;1.23;;;1.20;;
16075;SDS011;8142;48.242;11.644;2022-08-02T14:42:10;1.10;;;1.10;;
16075;SDS011;8142;48.242;11.644;2022-08-02T14:44:36;1.60;;;1.00;;
16075;SDS011;8142;48.242;11.644;2022-08-02T14:47:02;1.17;;;1.17;;
16075;SDS011;8142;48.242;11.644;2022-08-02T14:49:30;1.03;;;1.03;;
16075;SDS011;8142;48.242;11.644;2022-08-02T14:51:56;1.03;;;1.00;;
16075;SDS011;8142;48.242;11.644;2022-08-02T14:54:23;1.00;;;1.00;;
16075;SDS011;8142;48.242;11.644;2022-08-02T14:56:52;1.00;;;1.00;;
16075;SDS011;8142;48.242;11.644;2022-08-02T14:59:19;1.17;;;1.10;;
16075;SDS011;8142;48.242;11.644;2022-08-02T15:01:45;2.03;;;1.20;;
16075;SDS011;8142;48.242;11.644;2022-08-02T15:04:10;1.57;;;1.20;;
16075;SDS011;8142;48.242;11.644;2022-08-02T15:06:37;1.60;;;1.00;;
16075;SDS011;8142;48.242;11.644;2022-08-02T15:09:03;0.97;;;0.97;;
16075;SDS011;8142;48.242;11.644;2022-08-02T15:11:29;1.73;;;1.00;;
16075;SDS011;8142;48.242;11.644;2022-08-02T15:13:55;0.93;;;0.90;;
16075;SDS011;8142;48.242;11.644;2022-08-02T15:16:23;1.77;;;1.20;;
16075;SDS011;8142;48.242;11.644;2022-08-02T15:18:49;0.97;;;0.97;;
16075;SDS011;8142;48.242;11.644;2022-08-02T15:21:15;1.07;;;1.00;;
16075;SDS011;8142;48.242;11.644;2022-08-02T15:23:40;1.17;;;1.00;;
16075;SDS011;8142;48.242;11.644;2022-08-02T15:26:06;0.90;;;0.90;;
16075;SDS011;8142;48.242;11.644;2022-08-02T15:28:32;1.27;;;1.17;;
16075;SDS011;8142;48.242;11.644;2022-08-02T15:30:59;1.20;;;1.10;;
16075;SDS011;8142;48.242;11.644;2022-08-02T15:33:25;1.60;;;1.03;;
16075;SDS011;8142;48.242;11.644;2022-08-02T15:35:51;0.80;;;0.80;;
16075;SDS011;8142;48.242;11.644;2022-08-02T15:38:16;0.73;;;0.73;;
16075;SDS011;8142;48.242;11.644;2022-08-02T15:40:42;0.80;;;0.80;;
16075;SDS011;8142;48.242;11.644;2022-08-02T15:43:09;0.63;;;0.63;;
16075;SDS011;8142;48.242;11.644;2022-08-02T15:45:35;1.30;;;0.80;;
16075;SDS011;8142;48.242;11.644;2022-08-02T15:48:02;1.33;;;0.80;;